Time;durP1;ratioP1;P1;durP2;ratioP2;P2;SDS_P1;SDS_P2;PMS_P1;PMS_P2;Temp;Humidity;BMP_temperature;BMP_pressure;BME280_temperature;BME280_humidity;BME280_pressure;Samples;Min_cycle;Max_cycle;Signal;HPM_P1;HPM_P2
2022/07/02 00:01:10;;;;;;;5.30;3.73;;;16.20;1.00;;;;;;6162099;23;20215;-83
2022/07/02 00:03:43;;;;;;;4.23;3.47;;;16.00;1.00;;;;;;6158894;23;20307;-83
2022/07/02 00:06:13;;;;;;;5.50;3.37;;;16.00;1.00;;;;;;6185756;23;20228;-81
2022/07/02 00:08:42;;;;;;;7.53;3.20;;;15.80;1.00;;;;;;6162592;23;20219;-82
2022/07/02 00:11:14;;;;;;;3.67;3.23;;;15.80;1.00;;;;;;6183886;23;20171;-83
2022/07/02 00:13:42;;;;;;;3.83;3.07;;;15.90;1.00;;;;;;6211995;23;20175;-83
2022/07/02 00:16:10;;;;;;;4.77;2.90;;;16.00;1.00;;;;;;6185859;23;20187;-83
2022/07/02 00:18:40;;;;;;;6.93;2.97;;;16.00;1.00;;;;;;6162114;23;20247;-83
2022/07/02 00:21:07;;;;;;;4.57;3.00;;;15.90;1.00;;;;;;6155911;23;20309;-83
2022/07/02 00:23:34;;;;;;;3.80;3.03;;;15.90;1.00;;;;;;6181605;23;20195;-83
2022/07/02 00:26:14;;;;;;;5.50;2.80;;;15.80;1.00;;;;;;6211930;23;20173;-83
2022/07/02 00:28:42;;;;;;;4.37;2.73;;;15.80;1.00;;;;;;6182753;23;20163;-84
2022/07/02 00:31:09;;;;;;;8.00;2.87;;;15.70;1.00;;;;;;6160234;23;20163;-83
2022/07/02 00:33:39;;;;;;;4.60;2.73;;;15.70;1.00;;;;;;6184179;23;20171;-83
2022/07/02 00:36:06;;;;;;;2.97;2.67;;;15.80;1.00;;;;;;6183739;23;20231;-83
2022/07/02 00:38:33;;;;;;;3.73;2.53;;;15.70;99.90;;;;;;6184579;23;20227;-83
2022/07/02 00:41:02;;;;;;;4.47;2.53;;;15.70;94.30;;;;;;6126554;23;20259;-83
2022/07/02 00:43:29;;;;;;;5.17;2.77;;;15.60;99.90;;;;;;6150481;23;20171;-83
2022/07/02 00:45:58;;;;;;;4.70;2.63;;;15.60;99.90;;;;;;6147407;23;20465;-84
2022/07/02 00:48:26;;;;;;;5.63;2.80;;;15.60;99.90;;;;;;6149183;23;20219;-83
2022/07/02 00:50:53;;;;;;;4.83;2.60;;;15.60;99.90;;;;;;6150722;23;20630;-83
2022/07/02 00:53:20;;;;;;;3.13;2.60;;;15.60;99.90;;;;;;6178908;23;20247;-82
2022/07/02 00:55:55;;;;;;;2.67;2.30;;;15.60;99.90;;;;;;6174144;23;20178;-82
2022/07/02 00:58:23;;;;;;;3.20;2.60;;;15.70;99.90;;;;;;6150642;23;20178;-83
2022/07/02 01:00:50;;;;;;;5.67;2.33;;;15.60;99.90;;;;;;6174384;23;20242;-84
2022/07/02 01:03:20;;;;;;;3.53;2.50;;;15.60;99.90;;;;;;6154121;23;20176;-83
2022/07/02 01:05:49;;;;;;;2.20;2.00;;;15.50;99.90;;;;;;6154933;23;20484;-83
2022/07/02 01:11:04;;;;;;;3.13;2.47;;;15.60;99.90;;;;;;6179287;23;20608;-83
2022/07/02 01:13:32;;;;;;;3.90;2.10;;;15.50;99.90;;;;;;6151672;23;20280;-83
2022/07/02 01:16:00;;;;;;;3.07;2.20;;;15.50;99.90;;;;;;6152405;23;20679;-83
2022/07/02 01:18:27;;;;;;;5.20;2.40;;;15.40;99.90;;;;;;6152451;23;20167;-83
2022/07/02 01:20:54;;;;;;;3.43;2.27;;;15.50;99.90;;;;;;6147994;23;21056;-83
2022/07/02 01:23:21;;;;;;;3.80;2.63;;;15.50;99.90;;;;;;6173368;23;20246;-83
2022/07/02 01:25:54;;;;;;;10.27;3.20;;;15.50;99.90;;;;;;6175873;23;20216;-83
2022/07/02 01:28:22;;;;;;;5.37;2.73;;;15.40;99.90;;;;;;6154009;23;20521;-83
2022/07/02 01:30:50;;;;;;;5.17;2.70;;;15.50;99.90;;;;;;6153997;23;20596;-83
2022/07/02 01:33:17;;;;;;;2.83;2.50;;;15.50;99.90;;;;;;6154723;23;20167;-83
2022/07/02 01:35:44;;;;;;;4.40;2.43;;;15.60;99.90;;;;;;6151643;23;20618;-83
2022/07/02 01:38:11;;;;;;;4.23;2.70;;;15.60;99.90;;;;;;6153352;23;20172;-83
2022/07/02 01:40:37;;;;;;;6.03;2.90;;;15.60;99.90;;;;;;6159623;23;20218;-83
2022/07/02 01:43:04;;;;;;;4.03;2.87;;;15.60;99.90;;;;;;6159587;23;20178;-83
2022/07/02 01:45:31;;;;;;;4.37;2.63;;;15.50;99.90;;;;;;6158253;23;20695;-83
2022/07/02 01:47:58;;;;;;;3.67;2.87;;;15.50;99.90;;;;;;6134460;23;20166;-83
2022/07/02 01:50:25;;;;;;;4.43;2.70;;;15.60;99.90;;;;;;6133147;23;20220;-83
2022/07/02 01:52:56;;;;;;;4.73;2.77;;;15.70;99.90;;;;;;6134352;23;20177;-83
2022/07/02 01:55:24;;;;;;;6.60;2.90;;;15.60;99.90;;;;;;6135517;23;20174;-83
2022/07/02 01:57:51;;;;;;;3.80;2.73;;;15.50;99.90;;;;;;6158646;23;20173;-83
2022/07/02 02:00:18;;;;;;;3.60;2.87;;;15.50;99.90;;;;;;6156437;23;20168;-83
2022/07/02 02:02:46;;;;;;;4.90;2.83;;;15.50;99.90;;;;;;6184171;23;20166;-83
2022/07/02 02:05:13;;;;;;;5.63;2.70;;;15.50;99.90;;;;;;6158736;23;20186;-83
2022/07/02 02:07:40;;;;;;;4.83;2.50;;;15.50;99.90;;;;;;6133996;23;20171;-84
2022/07/02 02:10:07;;;;;;;6.10;3.13;;;15.50;99.90;;;;;;6183497;23;20465;-84
2022/07/02 02:12:34;;;;;;;4.47;2.77;;;15.50;92.90;;;;;;6135934;23;20162;-83
2022/07/02 02:15:01;;;;;;;3.27;2.50;;;15.50;99.90;;;;;;6185102;23;20170;-84
2022/07/02 02:17:28;;;;;;;3.20;2.43;;;15.40;99.90;;;;;;6135379;23;20200;-83
2022/07/02 02:19:55;;;;;;;3.33;2.93;;;15.40;99.90;;;;;;6184280;23;20174;-83
2022/07/02 02:22:22;;;;;;;4.13;3.00;;;15.30;82.30;;;;;;6210793;23;20486;-83
2022/07/02 02:24:49;;;;;;;3.40;2.70;;;15.30;99.90;;;;;;6136021;23;20798;-83
2022/07/02 02:27:16;;;;;;;3.63;2.50;;;15.40;66.10;;;;;;6161480;23;20177;-84
2022/07/02 02:29:43;;;;;;;3.97;2.80;;;15.40;29.00;;;;;;6160477;23;20159;-84
2022/07/02 02:32:09;;;;;;;3.20;2.70;;;15.40;33.40;;;;;;6160584;23;20913;-82
2022/07/02 02:34:36;;;;;;;5.60;2.77;;;15.30;13.60;;;;;;6135492;23;20174;-83
2022/07/02 02:37:04;;;;;;;3.30;3.00;;;15.40;1.00;;;;;;6159215;23;20513;-83
2022/07/02 02:39:31;;;;;;;4.20;2.70;;;15.40;62.60;;;;;;6135689;23;20182;-84
2022/07/02 02:41:58;;;;;;;6.60;2.93;;;15.30;45.60;;;;;;6129047;23;20218;-83
2022/07/02 02:44:25;;;;;;;4.90;3.13;;;15.10;27.50;;;;;;6155923;23;20192;-83
2022/07/02 02:46:52;;;;;;;3.50;2.70;;;15.10;79.60;;;;;;6181169;23;20576;-83
2022/07/02 02:49:18;;;;;;;3.70;3.27;;;15.10;1.00;;;;;;6155274;23;20601;-83
2022/07/02 02:51:45;;;;;;;5.90;3.20;;;15.00;1.30;;;;;;6154937;23;20161;-84
2022/07/02 02:54:12;;;;;;;3.97;2.70;;;15.20;20.20;;;;;;6156987;23;20202;-84
2022/07/02 02:56:39;;;;;;;3.80;2.77;;;15.20;45.80;;;;;;6156643;23;20157;-84
2022/07/02 02:59:06;;;;;;;5.57;3.10;;;15.30;1.00;;;;;;6180485;23;20201;-84
2022/07/02 03:01:33;;;;;;;3.67;3.00;;;15.10;8.00;;;;;;6155541;23;20173;-84
2022/07/02 03:04:00;;;;;;;6.60;3.60;;;15.10;83.20;;;;;;6156151;23;20160;-84
2022/07/02 03:06:27;;;;;;;4.10;3.00;;;15.10;13.40;;;;;;6179315;23;20199;-83
2022/07/02 03:08:54;;;;;;;3.63;3.20;;;15.00;1.00;;;;;;6179966;23;20229;-84
2022/07/02 03:11:20;;;;;;;4.10;3.03;;;15.00;7.50;;;;;;6155320;23;20159;-84
2022/07/02 03:13:47;;;;;;;4.07;3.20;;;14.90;1.00;;;;;;6179370;23;20170;-84
2022/07/02 03:16:14;;;;;;;5.80;3.50;;;15.00;3.00;;;;;;6155553;23;20165;-84
2022/07/02 03:18:41;;;;;;;3.83;3.47;;;15.00;1.70;;;;;;6154910;23;20649;-84
2022/07/02 03:21:08;;;;;;;6.30;3.37;;;14.90;40.40;;;;;;6154607;23;20219;-84
2022/07/02 03:23:35;;;;;;;4.37;3.10;;;14.90;54.10;;;;;;6154285;23;20489;-84
2022/07/02 03:26:02;;;;;;;5.43;3.27;;;14.90;96.50;;;;;;6152186;23;20187;-83
2022/07/02 03:28:29;;;;;;;4.27;3.30;;;14.90;57.00;;;;;;6178080;23;20166;-83
2022/07/02 03:30:56;;;;;;;3.63;3.00;;;15.00;81.30;;;;;;6155117;23;20164;-83
2022/07/02 03:33:23;;;;;;;5.87;3.33;;;15.00;50.30;;;;;;6179121;23;20170;-82
2022/07/02 03:35:50;;;;;;;4.87;3.40;;;15.10;36.00;;;;;;6153866;23;20168;-82
2022/07/02 03:38:17;;;;;;;4.23;3.20;;;15.10;50.50;;;;;;6153226;23;20170;-82
2022/07/02 03:40:44;;;;;;;7.10;3.53;;;15.20;1.60;;;;;;6156345;23;20635;-83
2022/07/02 03:43:11;;;;;;;5.83;3.17;;;15.20;1.00;;;;;;6157692;23;20628;-83
2022/07/02 03:45:38;;;;;;;4.00;2.93;;;15.40;1.00;;;;;;6156004;23;20534;-83
2022/07/02 03:48:05;;;;;;;4.47;3.43;;;15.30;6.40;;;;;;6157988;23;20225;-83
2022/07/02 03:50:32;;;;;;;3.40;3.03;;;15.30;1.00;;;;;;6156786;23;20610;-83
2022/07/02 03:52:59;;;;;;;5.30;2.90;;;15.10;20.50;;;;;;6133892;23;20241;-83
2022/07/02 03:55:25;;;;;;;5.87;3.30;;;15.00;52.40;;;;;;6157254;23;20167;-83
2022/07/02 03:57:52;;;;;;;4.00;2.97;;;15.20;26.40;;;;;;6133753;23;20213;-83
2022/07/02 04:00:19;;;;;;;3.23;2.50;;;15.20;1.00;;;;;;6182812;23;20162;-83
2022/07/02 04:02:46;;;;;;;3.60;2.70;;;15.30;18.40;;;;;;6131989;23;20227;-83
2022/07/02 04:05:13;;;;;;;4.97;2.90;;;15.20;1.00;;;;;;6135445;23;20194;-83
2022/07/02 04:07:40;;;;;;;4.07;2.40;;;15.10;21.20;;;;;;6162603;23;20598;-83
2022/07/02 04:10:07;;;;;;;5.47;2.50;;;15.20;1.00;;;;;;6192077;23;20256;-84
2022/07/02 04:12:34;;;;;;;3.07;2.47;;;15.20;1.00;;;;;;6180541;23;20167;-83
2022/07/02 04:15:02;;;;;;;4.37;2.13;;;15.20;1.00;;;;;;6194909;23;20167;-83
2022/07/02 04:17:29;;;;;;;3.73;2.80;;;15.30;1.00;;;;;;6193999;23;20164;-82
2022/07/02 04:19:56;;;;;;;3.00;2.70;;;15.30;1.00;;;;;;6164130;23;20502;-83
2022/07/02 04:22:23;;;;;;;2.57;2.23;;;15.30;1.00;;;;;;6147461;23;20222;-83
2022/07/02 04:24:50;;;;;;;3.83;2.53;;;15.30;1.00;;;;;;6168105;23;20194;-83
2022/07/02 04:27:18;;;;;;;4.37;2.53;;;15.40;1.00;;;;;;6165125;23;20172;-84
2022/07/02 04:29:45;;;;;;;3.83;2.50;;;15.40;1.00;;;;;;6135320;23;20645;-84
2022/07/02 04:32:12;;;;;;;4.70;2.20;;;15.40;1.00;;;;;;6213877;23;20205;-83
2022/07/02 04:34:39;;;;;;;4.83;2.10;;;15.50;1.00;;;;;;6185563;23;20160;-83
2022/07/02 04:37:06;;;;;;;2.97;1.83;;;15.40;1.00;;;;;;6159365;23;20178;-83
2022/07/02 04:39:33;;;;;;;3.43;2.40;;;15.30;1.00;;;;;;6184757;23;20194;-83
2022/07/02 04:42:00;;;;;;;3.93;1.90;;;15.50;1.00;;;;;;6158905;23;20264;-83
2022/07/02 04:44:27;;;;;;;8.07;2.90;;;15.50;1.00;;;;;;6183881;23;20185;-83
2022/07/02 04:46:55;;;;;;;3.30;2.27;;;15.40;1.00;;;;;;6135113;23;20165;-83
2022/07/02 04:49:22;;;;;;;6.53;2.50;;;15.40;1.00;;;;;;6160484;23;20162;-83
2022/07/02 04:51:50;;;;;;;2.37;1.93;;;15.60;1.00;;;;;;6182526;23;20159;-83
2022/07/02 04:54:17;;;;;;;3.43;2.00;;;15.60;1.00;;;;;;6159470;23;20214;-83
2022/07/02 04:56:43;;;;;;;2.73;2.10;;;15.60;1.00;;;;;;6157999;23;20900;-84
2022/07/02 04:59:10;;;;;;;3.53;2.10;;;15.70;1.00;;;;;;6134523;23;20547;-83
2022/07/02 05:01:37;;;;;;;4.20;2.03;;;15.80;1.00;;;;;;6158746;23;20163;-84
2022/07/02 05:04:04;;;;;;;3.80;1.90;;;15.80;1.00;;;;;;6133572;23;20162;-84
2022/07/02 05:06:31;;;;;;;4.20;2.50;;;15.90;1.00;;;;;;6132514;23;20870;-84
2022/07/02 05:08:58;;;;;;;3.43;2.30;;;15.90;1.00;;;;;;6157269;23;20221;-84
2022/07/02 05:11:25;;;;;;;3.97;2.20;;;15.90;1.00;;;;;;6133047;23;20167;-83
2022/07/02 05:13:52;;;;;;;3.47;2.23;;;15.80;1.00;;;;;;6133427;23;20264;-83
2022/07/02 05:16:19;;;;;;;5.07;2.67;;;15.90;1.00;;;;;;6158133;23;20225;-83
2022/07/02 05:18:46;;;;;;;3.33;2.10;;;16.00;1.00;;;;;;6133386;23;20922;-84
2022/07/02 05:21:13;;;;;;;4.40;2.33;;;15.90;1.00;;;;;;6156088;23;20174;-84
2022/07/02 05:23:39;;;;;;;3.70;2.20;;;15.80;1.00;;;;;;6157302;23;20162;-84
2022/07/02 05:26:07;;;;;;;4.90;2.20;;;15.90;1.00;;;;;;6157566;23;20718;-84
2022/07/02 05:28:34;;;;;;;5.03;1.87;;;15.90;1.00;;;;;;6183613;23;20159;-83
2022/07/02 05:31:01;;;;;;;3.57;2.33;;;15.90;1.00;;;;;;6182563;23;20496;-83
2022/07/02 05:33:28;;;;;;;3.37;1.90;;;15.90;1.00;;;;;;6158790;23;20168;-84
2022/07/02 05:35:55;;;;;;;4.33;2.17;;;16.00;1.00;;;;;;6157786;23;20172;-84
2022/07/02 05:38:22;;;;;;;4.23;2.10;;;16.30;1.00;;;;;;6209821;23;20218;-83
2022/07/02 05:40:48;;;;;;;3.70;1.90;;;16.30;1.00;;;;;;6154048;23;20216;-83
2022/07/02 05:43:15;;;;;;;3.10;1.90;;;16.20;1.00;;;;;;6154572;23;20537;-83
2022/07/02 05:45:42;;;;;;;3.53;2.20;;;16.40;1.00;;;;;;6154041;23;20647;-83
2022/07/02 05:48:15;;;;;;;4.53;1.93;;;16.40;1.00;;;;;;6132401;23;20243;-83
2022/07/02 05:50:42;;;;;;;4.27;2.00;;;16.60;1.00;;;;;;6127844;23;20433;-83
2022/07/02 05:53:09;;;;;;;3.97;2.00;;;16.90;1.00;;;;;;6154432;23;20597;-83
2022/07/02 05:55:36;;;;;;;2.60;1.80;;;16.90;99.90;;;;;;6155399;23;20683;-83
2022/07/02 05:58:02;;;;;;;5.43;2.50;;;16.90;1.00;;;;;;6153461;23;20183;-83
2022/07/02 06:00:29;;;;;;;4.40;2.10;;;17.10;99.90;;;;;;6125267;23;20183;-82
2022/07/02 06:02:56;;;;;;;5.77;2.00;;;17.20;1.00;;;;;;6129298;23;20175;-84
2022/07/02 06:08:09;;;;;;;5.23;1.67;;;16.90;1.00;;;;;;6156554;23;20160;-84
2022/07/02 06:10:36;;;;;;;4.03;1.57;;;16.70;99.90;;;;;;6152569;23;20230;-83
2022/07/02 06:13:03;;;;;;;3.77;1.90;;;16.90;99.90;;;;;;6179510;23;20640;-83
2022/07/02 06:15:30;;;;;;;3.20;1.63;;;17.20;99.90;;;;;;6153345;23;20179;-82
2022/07/02 06:18:01;;;;;;;3.47;1.83;;;17.40;99.90;;;;;;6129838;23;20243;-86
2022/07/02 06:20:28;;;;;;;2.10;1.37;;;17.50;1.00;;;;;;6154936;23;20595;-84
2022/07/02 06:22:55;;;;;;;2.40;1.73;;;17.30;1.00;;;;;;6130560;23;20169;-85
2022/07/02 06:25:22;;;;;;;3.70;1.50;;;17.40;82.70;;;;;;6131181;23;20188;-85
2022/07/02 06:27:49;;;;;;;5.37;1.80;;;17.50;1.00;;;;;;6130449;23;20535;-85
2022/07/02 06:30:17;;;;;;;1.83;1.40;;;17.40;1.00;;;;;;6130924;23;20539;-84
2022/07/02 06:32:44;;;;;;;3.87;1.70;;;17.50;1.00;;;;;;6131494;23;20843;-85
2022/07/02 06:35:11;;;;;;;2.03;1.67;;;17.60;1.00;;;;;;6129885;23;20161;-85
2022/07/02 06:37:38;;;;;;;2.10;1.90;;;17.60;1.00;;;;;;6130308;23;20166;-85
2022/07/02 06:40:06;;;;;;;2.50;1.50;;;17.70;1.00;;;;;;6131209;23;20223;-85
2022/07/02 06:42:33;;;;;;;3.87;1.63;;;17.90;1.00;;;;;;6181978;23;20204;-85
2022/07/02 06:45:00;;;;;;;2.77;1.30;;;18.20;99.90;;;;;;6136537;23;20170;-84
2022/07/02 06:47:28;;;;;;;3.43;1.60;;;18.50;99.90;;;;;;6184916;23;20163;-85
2022/07/02 06:49:56;;;;;;;2.60;1.43;;;18.80;99.90;;;;;;6159790;23;20168;-84
2022/07/02 06:52:24;;;;;;;1.33;0.93;;;18.80;1.00;;;;;;6137526;23;20161;-85
2022/07/02 06:54:51;;;;;;;1.63;1.33;;;19.00;1.00;;;;;;6162479;23;20175;-85
2022/07/02 06:57:18;;;;;;;2.73;1.20;;;19.10;1.00;;;;;;6186248;23;20165;-87
2022/07/02 06:59:52;;;;;;;1.77;1.20;;;19.00;1.00;;;;;;6182861;23;20554;-82
2022/07/02 07:02:19;;;;;;;2.17;1.23;;;19.20;1.00;;;;;;6181410;23;20169;-83
2022/07/02 07:04:46;;;;;;;2.77;1.10;;;19.30;1.00;;;;;;6182570;23;20168;-86
2022/07/02 07:07:13;;;;;;;3.53;1.07;;;19.40;1.00;;;;;;6133974;23;20763;-84
2022/07/02 07:09:39;;;;;;;2.23;0.93;;;19.60;1.00;;;;;;6159215;23;20213;-86
2022/07/02 07:12:07;;;;;;;1.37;1.10;;;19.70;1.00;;;;;;6156389;23;20157;-83
2022/07/02 07:14:35;;;;;;;3.63;1.23;;;19.80;1.00;;;;;;6155516;23;20164;-83
2022/07/02 07:17:03;;;;;;;1.00;0.87;;;20.10;1.00;;;;;;6158225;23;20222;-81
2022/07/02 07:19:30;;;;;;;1.30;0.80;;;20.10;1.00;;;;;;6131016;23;20941;-82
2022/07/02 07:21:57;;;;;;;5.77;0.93;;;20.10;1.00;;;;;;6156771;23;20489;-82
2022/07/02 07:24:24;;;;;;;1.30;1.00;;;20.10;1.00;;;;;;6133815;23;20191;-82
2022/07/02 07:26:51;;;;;;;2.20;0.80;;;20.10;1.00;;;;;;6156466;23;20548;-81
2022/07/02 07:29:18;;;;;;;2.53;0.83;;;20.10;1.00;;;;;;6131859;23;20187;-82
2022/07/02 07:31:45;;;;;;;1.70;0.77;;;20.40;1.00;;;;;;6157579;23;20160;-82
2022/07/02 07:34:12;;;;;;;1.20;0.67;;;20.80;1.00;;;;;;6156871;23;20259;-82
2022/07/02 07:36:39;;;;;;;2.57;0.67;;;20.60;1.00;;;;;;6180865;23;20191;-82
2022/07/02 07:39:07;;;;;;;2.20;1.00;;;20.90;1.00;;;;;;6158429;23;20184;-82
2022/07/02 07:41:35;;;;;;;1.17;0.90;;;21.10;1.00;;;;;;6156390;23;20208;-82
2022/07/02 07:44:02;;;;;;;4.63;0.90;;;21.20;1.00;;;;;;6159140;23;20164;-83
2022/07/02 07:46:29;;;;;;;1.77;0.90;;;21.30;1.00;;;;;;6160770;23;20196;-81
2022/07/02 07:48:58;;;;;;;1.70;0.80;;;21.60;1.00;;;;;;6160296;23;20638;-81
2022/07/02 07:51:25;;;;;;;1.00;0.80;;;21.40;1.00;;;;;;6139020;23;20559;-80
2022/07/02 07:53:52;;;;;;;1.93;0.73;;;21.50;1.00;;;;;;6160232;23;20805;-81
2022/07/02 07:56:19;;;;;;;2.03;0.73;;;21.60;1.00;;;;;;6136287;23;20171;-81
2022/07/02 07:58:47;;;;;;;1.07;0.70;;;21.80;1.00;;;;;;6185649;23;20272;-81
2022/07/02 08:01:14;;;;;;;0.90;0.40;;;21.80;1.00;;;;;;6187150;23;20160;-80
2022/07/02 08:03:41;;;;;;;1.27;0.80;;;21.90;1.00;;;;;;6186785;23;20205;-81
2022/07/02 08:06:08;;;;;;;1.57;0.70;;;22.00;1.00;;;;;;6185121;23;20187;-81
2022/07/02 08:08:35;;;;;;;2.55;0.90;;;21.90;1.00;;;;;;6160864;23;20410;-79
2022/07/02 08:11:03;;;;;;;2.63;0.60;;;22.20;1.00;;;;;;6185062;23;20219;-79
2022/07/02 08:13:31;;;;;;;1.50;0.67;;;23.10;1.00;;;;;;6210688;23;20188;-79
2022/07/02 08:15:59;;;;;;;2.17;0.70;;;24.00;49.60;;;;;;6159728;23;20187;-79
2022/07/02 08:18:27;;;;;;;3.57;0.87;;;24.10;1.00;;;;;;6183114;23;20171;-79
2022/07/02 08:20:55;;;;;;;1.17;0.80;;;24.50;1.00;;;;;;6133375;23;20628;-79
2022/07/02 08:23:22;;;;;;;2.87;0.80;;;24.60;1.00;;;;;;6159062;23;20198;-79
2022/07/02 08:25:49;;;;;;;1.00;0.87;;;24.20;1.00;;;;;;6132175;23;20200;-79
2022/07/02 08:28:17;;;;;;;1.90;0.70;;;24.50;1.00;;;;;;6157995;23;20753;-79
2022/07/02 08:30:45;;;;;;;2.47;0.90;;;24.20;1.00;;;;;;6182480;23;20611;-79
2022/07/02 08:33:14;;;;;;;2.43;0.80;;;24.40;1.00;;;;;;6135368;23;20222;-79
2022/07/02 08:35:41;;;;;;;4.93;0.90;;;25.30;1.00;;;;;;6133876;23;20164;-79
2022/07/02 08:38:08;;;;;;;0.90;0.50;;;25.20;1.00;;;;;;6159041;23;20160;-79
2022/07/02 08:40:35;;;;;;;1.90;0.90;;;25.10;1.00;;;;;;6180846;23;20192;-79
2022/07/02 08:43:03;;;;;;;3.50;0.83;;;24.70;1.00;;;;;;6130790;23;20195;-79
2022/07/02 08:45:32;;;;;;;2.45;0.70;;;24.60;1.00;;;;;;6154337;23;20165;-79
2022/07/02 08:48:01;;;;;;;3.37;1.00;;;24.70;1.00;;;;;;6154270;23;20211;-79
2022/07/02 08:50:28;;;;;;;1.77;0.70;;;24.60;1.00;;;;;;6154273;23;20161;-79
2022/07/02 08:52:54;;;;;;;1.63;1.00;;;24.90;1.00;;;;;;6153766;23;20157;-79
2022/07/02 08:55:22;;;;;;;2.93;0.90;;;25.10;1.00;;;;;;6154730;23;20669;-79
2022/07/02 08:57:51;;;;;;;3.20;1.00;;;25.20;1.00;;;;;;6129101;23;20172;-79
2022/07/02 09:00:22;;;;;;;1.07;0.73;;;26.00;1.00;;;;;;6130430;23;20420;-79
2022/07/02 09:03:00;;;;;;;2.27;1.83;;;26.70;99.90;;;;;;6154002;23;20173;-79
2022/07/02 09:05:29;;;;;;;3.00;1.40;;;25.90;1.00;;;;;;6153832;23;20158;-79
2022/07/02 09:07:57;;;;;;;2.13;0.80;;;24.70;1.00;;;;;;6152345;23;20230;-79
2022/07/02 09:10:26;;;;;;;2.63;0.87;;;25.20;1.00;;;;;;6128959;23;20170;-79
2022/07/02 09:12:54;;;;;;;2.43;0.90;;;25.80;1.00;;;;;;6151737;23;20176;-80
2022/07/02 09:15:21;;;;;;;2.77;0.83;;;26.90;25.70;;;;;;6152721;23;20175;-80
2022/07/02 09:17:48;;;;;;;3.17;0.83;;;25.90;99.90;;;;;;6152515;23;20454;-79
2022/07/02 09:20:15;;;;;;;2.60;1.03;;;25.20;1.00;;;;;;6175809;23;20232;-79
2022/07/02 09:22:46;;;;;;;1.63;1.00;;;26.40;1.00;;;;;;6149586;23;20277;-79
2022/07/02 09:25:18;;;;;;;2.93;0.80;;;26.70;99.90;;;;;;6154044;23;20168;-79
2022/07/02 09:27:47;;;;;;;2.67;0.73;;;25.70;1.00;;;;;;6155612;23;20215;-79
2022/07/02 09:30:16;;;;;;;1.93;0.60;;;25.30;1.00;;;;;;6181525;23;20156;-79
2022/07/02 09:32:45;;;;;;;1.57;0.80;;;25.40;1.00;;;;;;6155396;23;20172;-79
2022/07/02 09:35:20;;;;;;;2.53;0.80;;;24.60;1.00;;;;;;6155747;23;20163;-78
2022/07/02 09:37:48;;;;;;;2.07;0.60;;;25.30;1.00;;;;;;6154613;23;20170;-78
2022/07/02 09:40:16;;;;;;;2.67;0.90;;;25.30;1.00;;;;;;6154835;23;20193;-79
2022/07/02 09:42:49;;;;;;;2.47;1.10;;;24.90;1.00;;;;;;6182910;23;20199;-78
2022/07/02 09:45:16;;;;;;;1.20;0.60;;;24.40;1.00;;;;;;6161153;23;20432;-78
2022/07/02 09:47:48;;;;;;;2.07;1.30;;;24.60;1.00;;;;;;6136344;23;20560;-78
2022/07/02 09:50:18;;;;;;;1.90;0.80;;;24.20;1.00;;;;;;6161372;23;20484;-79
2022/07/02 09:52:53;;;;;;;2.17;0.90;;;24.40;1.00;;;;;;6183783;23;20164;-78
2022/07/02 09:55:24;;;;;;;1.57;0.90;;;24.10;1.00;;;;;;6184261;23;20171;-79
2022/07/02 09:57:53;;;;;;;2.20;0.80;;;24.60;1.00;;;;;;6160555;23;20451;-78
2022/07/02 10:00:21;;;;;;;2.57;0.80;;;24.90;1.00;;;;;;6185806;23;20480;-79
2022/07/02 10:02:52;;;;;;;1.40;0.80;;;24.70;1.00;;;;;;6211513;23;20572;-79
2022/07/02 10:05:33;;;;;;;1.93;0.50;;;24.10;1.00;;;;;;6184803;23;20165;-79
2022/07/02 10:08:02;;;;;;;2.40;0.80;;;24.10;1.00;;;;;;6184959;23;20547;-78
2022/07/02 10:10:38;;;;;;;1.53;0.60;;;25.00;1.00;;;;;;6210940;23;20466;-79
2022/07/02 10:13:11;;;;;;;1.93;0.90;;;24.70;1.00;;;;;;6211748;23;20583;-79
2022/07/02 10:16:02;;;;;;;1.67;0.80;;;24.70;1.00;;;;;;6184444;23;20167;-79
2022/07/02 10:18:30;;;;;;;2.00;0.80;;;24.40;1.00;;;;;;6184722;23;20209;-78
2022/07/02 10:20:59;;;;;;;1.40;0.93;;;24.10;1.00;;;;;;6134746;23;20244;-79
2022/07/02 10:23:27;;;;;;;2.50;1.23;;;23.90;1.00;;;;;;6160610;23;20170;-78
2022/07/02 10:25:55;;;;;;;1.05;0.90;;;24.10;1.00;;;;;;6184151;23;20415;-78
2022/07/02 10:28:25;;;;;;;1.63;0.97;;;23.90;1.00;;;;;;6136112;23;20391;-78
2022/07/02 10:30:54;;;;;;;1.10;0.90;;;23.90;1.00;;;;;;6184938;23;20598;-79
2022/07/02 10:33:53;;;;;;;0.93;0.67;;;23.90;1.00;;;;;;6211382;23;20168;-78
2022/07/02 10:36:22;;;;;;;2.27;1.10;;;24.10;1.00;;;;;;6182888;23;20593;-78
2022/07/02 10:38:57;;;;;;;2.50;0.90;;;23.80;1.00;;;;;;6160721;23;20201;-78
2022/07/02 10:41:29;;;;;;;3.83;1.00;;;23.70;1.00;;;;;;6159028;23;20211;-78
2022/07/02 10:43:57;;;;;;;2.53;0.73;;;24.30;1.00;;;;;;6160083;23;20194;-79
2022/07/02 10:46:25;;;;;;;2.90;0.90;;;24.10;1.00;;;;;;6184513;23;20634;-78
2022/07/02 10:48:54;;;;;;;2.03;0.90;;;24.60;1.00;;;;;;6184383;23;20221;-78
2022/07/02 10:51:25;;;;;;;1.20;0.80;;;24.00;1.00;;;;;;6183241;23;20159;-78
2022/07/02 10:53:58;;;;;;;3.77;1.20;;;23.70;1.00;;;;;;6211595;23;20171;-78
2022/07/02 10:56:24;;;;;;;2.00;0.90;;;24.30;1.00;;;;;;6184533;23;20175;-78
2022/07/02 10:58:51;;;;;;;3.47;0.90;;;24.40;1.00;;;;;;6159712;23;20547;-78
2022/07/02 11:01:23;;;;;;;5.03;1.10;;;24.30;1.00;;;;;;6135976;23;20209;-78
2022/07/02 11:03:56;;;;;;;2.47;0.87;;;23.70;1.00;;;;;;6211407;23;20258;-78
2022/07/02 11:06:31;;;;;;;2.77;0.93;;;24.00;1.00;;;;;;6184796;23;20172;-78
2022/07/02 11:09:01;;;;;;;1.93;0.80;;;23.50;1.00;;;;;;6188306;23;20170;-78
2022/07/02 11:11:36;;;;;;;1.60;1.10;;;23.80;1.00;;;;;;6185970;23;20167;-78
2022/07/02 11:14:05;;;;;;;1.67;1.00;;;24.50;1.00;;;;;;6187048;23;20248;-78
2022/07/02 11:16:40;;;;;;;4.93;1.40;;;23.90;1.00;;;;;;6212850;23;20195;-78
2022/07/02 11:19:19;;;;;;;2.23;0.90;;;23.60;1.00;;;;;;6213408;23;20169;-78
2022/07/02 11:21:48;;;;;;;3.77;1.13;;;23.70;1.00;;;;;;6210987;23;20602;-78
2022/07/02 11:24:19;;;;;;;2.23;1.10;;;23.60;1.00;;;;;;6186674;23;20171;-78
2022/07/02 11:26:48;;;;;;;3.03;0.97;;;23.80;1.00;;;;;;6212682;23;20196;-78
2022/07/02 11:29:15;;;;;;;2.47;1.03;;;24.20;1.00;;;;;;6162022;23;20157;-79
2022/07/02 11:31:48;;;;;;;1.50;0.77;;;24.10;1.00;;;;;;6185974;23;20215;-78
2022/07/02 11:34:18;;;;;;;2.67;0.90;;;24.40;1.00;;;;;;6212957;23;20681;-78
2022/07/02 11:36:45;;;;;;;3.10;0.80;;;24.20;1.00;;;;;;6211656;23;20162;-78
2022/07/02 11:39:15;;;;;;;1.70;0.70;;;24.00;1.00;;;;;;6162253;23;20613;-78
2022/07/02 11:41:44;;;;;;;2.17;0.73;;;23.40;1.00;;;;;;6184699;23;20260;-79
2022/07/02 11:44:25;;;;;;;2.10;0.77;;;23.10;1.00;;;;;;6187707;23;20236;-78
2022/07/02 11:46:51;;;;;;;1.67;0.70;;;23.30;1.00;;;;;;6139083;23;20674;-78
2022/07/02 11:49:20;;;;;;;2.20;0.60;;;23.60;1.00;;;;;;6187544;23;20176;-79
2022/07/02 11:51:48;;;;;;;1.00;0.57;;;23.30;1.00;;;;;;6185720;23;20655;-78
2022/07/02 11:54:16;;;;;;;1.70;0.53;;;23.20;1.00;;;;;;6186951;23;20159;-78
2022/07/02 11:56:45;;;;;;;1.33;0.77;;;23.40;1.00;;;;;;6161270;23;20173;-78
2022/07/02 11:59:25;;;;;;;1.83;0.80;;;23.40;1.00;;;;;;6187218;23;20166;-79
2022/07/02 12:01:53;;;;;;;1.47;0.67;;;23.40;1.00;;;;;;6186512;23;20245;-78
2022/07/02 12:04:22;;;;;;;1.53;0.60;;;23.20;1.00;;;;;;6212884;23;20168;-78
2022/07/02 12:06:52;;;;;;;3.30;0.60;;;23.40;1.00;;;;;;6160777;23;20222;-78
2022/07/02 12:09:22;;;;;;;3.10;1.00;;;24.00;1.00;;;;;;6213040;23;20472;-78
2022/07/02 12:11:50;;;;;;;2.13;0.60;;;24.40;1.00;;;;;;6212284;23;20925;-80
2022/07/02 12:14:24;;;;;;;1.03;0.70;;;24.90;99.90;;;;;;6213453;23;20160;-80
2022/07/02 12:16:52;;;;;;;1.20;0.83;;;24.40;1.00;;;;;;6159420;23;20169;-80
2022/07/02 12:19:19;;;;;;;0.63;0.50;;;24.50;1.00;;;;;;6161160;23;20176;-78
2022/07/02 12:21:48;;;;;;;1.87;0.60;;;24.80;1.00;;;;;;6160340;23;20165;-78
2022/07/02 12:24:27;;;;;;;1.03;0.60;;;25.30;40.50;;;;;;6161677;23;20254;-80
2022/07/02 12:26:57;;;;;;;1.90;0.80;;;26.10;37.50;;;;;;6184895;23;20209;-80
2022/07/02 12:32:26;;;;;;;1.17;0.60;;;26.80;99.90;;;;;;6211748;23;20174;-80
2022/07/02 12:34:59;;;;;;;1.83;0.70;;;25.40;57.80;;;;;;6185676;23;20533;-80
2022/07/02 12:37:26;;;;;;;2.20;0.70;;;24.60;90.90;;;;;;6211025;23;20222;-80
2022/07/02 12:40:10;;;;;;;2.40;0.70;;;24.40;1.00;;;;;;6184764;23;20260;-79
2022/07/02 12:42:55;;;;;;;2.17;0.70;;;24.90;1.00;;;;;;6184195;23;20206;-79
2022/07/02 12:45:31;;;;;;;3.13;0.67;;;25.90;82.40;;;;;;6185455;23;20246;-80
2022/07/02 12:48:00;;;;;;;1.23;0.70;;;25.60;99.90;;;;;;6184233;23;20261;-79
2022/07/02 12:50:30;;;;;;;1.27;0.80;;;25.30;48.70;;;;;;6211490;23;20253;-79
2022/07/02 12:53:01;;;;;;;3.73;1.00;;;25.60;99.90;;;;;;6184282;23;20222;-79
2022/07/02 12:55:34;;;;;;;1.20;0.80;;;25.70;99.90;;;;;;6185278;23;20177;-79
2022/07/02 12:58:09;;;;;;;2.27;0.67;;;25.50;99.90;;;;;;6185120;23;20249;-80
2022/07/02 13:00:38;;;;;;;0.97;0.60;;;25.40;70.70;;;;;;6212085;23;20158;-80
2022/07/02 13:03:10;;;;;;;4.00;0.70;;;25.50;99.90;;;;;;6186272;23;20531;-79
2022/07/02 13:05:49;;;;;;;2.03;0.70;;;25.20;99.90;;;;;;6184645;23;20167;-79
2022/07/02 13:08:17;;;;;;;1.57;0.60;;;24.60;85.70;;;;;;6184383;23;20610;-79